createdAt,value
2016-09-27T00:00:33.872Z,0
2016-09-27T00:01:34.571Z,0
2016-09-27T00:02:35.268Z,0
2016-09-27T00:03:35.994Z,0
2016-09-27T00:04:36.735Z,0
2016-09-27T00:05:37.439Z,0
2016-09-27T00:06:38.143Z,0
2016-09-27T00:07:38.819Z,0
2016-09-27T00:08:39.505Z,0
2016-09-27T00:09:40.231Z,0
2016-09-27T00:10:40.945Z,0
2016-09-27T00:11:41.656Z,0
2016-09-27T00:12:42.381Z,0
2016-09-27T00:13:43.073Z,0
2016-09-27T00:14:43.806Z,0
2016-09-27T00:15:44.508Z,0
2016-09-27T00:16:45.185Z,0
2016-09-27T00:17:45.877Z,0
2016-09-27T00:18:46.571Z,0
2016-09-27T00:19:47.284Z,0
2016-09-27T00:20:48.015Z,0
2016-09-27T00:21:48.708Z,0
2016-09-27T00:22:49.407Z,0
2016-09-27T00:23:50.107Z,0
2016-09-27T00:24:50.806Z,0
2016-09-27T00:25:51.526Z,0
2016-09-27T00:26:52.238Z,0
2016-09-27T00:27:52.952Z,0
2016-09-27T00:28:53.641Z,0
2016-09-27T00:29:54.350Z,0
2016-09-27T00:30:55.102Z,0
2016-09-27T00:31:55.795Z,0
2016-09-27T00:32:56.488Z,0
2016-09-27T00:33:57.182Z,0
2016-09-27T00:34:57.874Z,0
2016-09-27T00:35:58.606Z,0
2016-09-27T00:36:59.282Z,0
2016-09-27T00:37:59.958Z,0
2016-09-27T00:39:00.650Z,0
2016-09-27T00:40:01.348Z,0
2016-09-27T00:41:02.039Z,0
2016-09-27T00:42:02.742Z,0
2016-09-27T00:43:03.432Z,0
2016-09-27T00:44:04.122Z,0
2016-09-27T00:45:04.812Z,0
2016-09-27T00:46:05.504Z,0
2016-09-27T00:47:06.183Z,0
2016-09-27T00:48:06.881Z,0
2016-09-27T00:49:07.550Z,0
2016-09-27T00:50:08.245Z,0
2016-09-27T00:51:08.924Z,0
2016-09-27T00:52:09.633Z,0
2016-09-27T00:53:10.308Z,0
2016-09-27T00:54:10.983Z,0
2016-09-27T00:55:11.688Z,0
2016-09-27T00:56:12.374Z,0
2016-09-27T00:57:13.056Z,0
2016-09-27T00:58:13.758Z,0
2016-09-27T00:59:14.442Z,0
2016-09-27T01:00:15.133Z,0
2016-09-27T01:01:15.821Z,0
2016-09-27T01:02:16.495Z,0
2016-09-27T01:03:17.193Z,0
2016-09-27T01:04:17.888Z,0
2016-09-27T01:05:18.582Z,0
2016-09-27T01:06:19.283Z,0
2016-09-27T01:07:19.958Z,0
2016-09-27T01:08:20.646Z,0
2016-09-27T01:09:21.340Z,0
2016-09-27T01:10:22.039Z,0
2016-09-27T01:11:22.732Z,0
2016-09-27T01:12:23.425Z,0
2016-09-27T01:13:24.128Z,0
2016-09-27T01:14:24.849Z,0
2016-09-27T01:15:25.549Z,0
2016-09-27T01:16:26.236Z,0
2016-09-27T01:17:26.924Z,0
2016-09-27T01:18:27.632Z,0
2016-09-27T01:19:28.324Z,0
2016-09-27T01:20:29.025Z,0
2016-09-27T01:21:29.709Z,0
2016-09-27T01:22:30.803Z,0
2016-09-27T01:23:31.747Z,0
2016-09-27T01:24:32.989Z,0
2016-09-27T01:25:34.455Z,0
2016-09-27T01:26:36.267Z,0
2016-09-27T01:27:38.169Z,0
2016-09-27T01:28:38.951Z,0
2016-09-27T01:29:40.148Z,0
2016-09-27T01:30:41.227Z,0
2016-09-27T01:31:42.044Z,0
2016-09-27T01:32:43.252Z,0
2016-09-27T01:33:44.160Z,0
2016-09-27T01:34:45.161Z,0
2016-09-27T01:35:46.519Z,0
2016-09-27T01:36:47.331Z,0
2016-09-27T01:37:48.053Z,0
2016-09-27T01:38:48.817Z,0
2016-09-27T01:39:49.627Z,0
2016-09-27T01:40:50.387Z,0
2016-09-27T01:41:51.149Z,0
2016-09-27T01:42:51.953Z,0
2016-09-27T01:43:52.686Z,0
2016-09-27T01:44:53.606Z,0
2016-09-27T01:45:54.328Z,0
2016-09-27T01:46:55.152Z,0
2016-09-27T01:47:55.993Z,0
2016-09-27T01:48:56.838Z,0
2016-09-27T01:49:57.486Z,0
2016-09-27T01:50:58.182Z,0
2016-09-27T01:51:58.970Z,0
2016-09-27T01:52:59.920Z,0
2016-09-27T01:54:00.852Z,0
2016-09-27T01:55:01.773Z,0
2016-09-27T01:56:02.546Z,0
2016-09-27T01:57:03.248Z,0
2016-09-27T01:58:04.001Z,0
2016-09-27T01:59:04.852Z,0
2016-09-27T02:00:05.990Z,0
2016-09-27T02:01:07.175Z,0
2016-09-27T02:02:07.983Z,0
2016-09-27T02:03:08.691Z,0
2016-09-27T02:04:09.405Z,0
2016-09-27T02:05:12.276Z,0
2016-09-27T02:06:15.240Z,0
2016-09-27T02:07:18.052Z,0
2016-09-27T02:08:20.980Z,0
2016-09-27T02:09:24.022Z,0
2016-09-27T02:10:26.775Z,0
2016-09-27T02:11:29.530Z,0
2016-09-27T02:12:32.399Z,0
2016-09-27T02:13:35.249Z,0
2016-09-27T02:14:38.222Z,0
2016-09-27T02:15:41.099Z,0
2016-09-27T02:16:43.866Z,0
2016-09-27T02:17:46.413Z,0
2016-09-27T02:18:47.131Z,0
2016-09-27T02:19:47.816Z,0
2016-09-27T02:20:48.515Z,0
2016-09-27T02:21:49.210Z,0
2016-09-27T02:22:49.922Z,0
2016-09-27T02:23:50.612Z,0
2016-09-27T02:24:51.326Z,0
2016-09-27T02:25:52.035Z,0
2016-09-27T02:26:52.723Z,0
2016-09-27T02:27:53.412Z,0
2016-09-27T02:28:54.101Z,0
2016-09-27T02:29:54.791Z,0
2016-09-27T02:30:55.481Z,0
2016-09-27T02:31:56.169Z,0
2016-09-27T02:32:56.876Z,0
2016-09-27T02:33:57.584Z,0
2016-09-27T02:34:58.271Z,0
2016-09-27T02:35:58.976Z,0
2016-09-27T02:36:59.666Z,0
2016-09-27T02:38:00.357Z,0
2016-09-27T02:39:01.102Z,0
2016-09-27T02:40:01.783Z,0
2016-09-27T02:41:02.474Z,0
2016-09-27T02:42:03.180Z,0
2016-09-27T02:43:03.873Z,0
2016-09-27T02:44:04.565Z,0
2016-09-27T02:45:05.247Z,0
2016-09-27T02:46:05.926Z,0
2016-09-27T02:47:06.640Z,0
2016-09-27T02:48:07.332Z,0
2016-09-27T02:49:08.018Z,0
2016-09-27T02:50:08.727Z,0
2016-09-27T02:51:09.418Z,0
2016-09-27T02:52:10.101Z,0
2016-09-27T02:53:10.796Z,0
2016-09-27T02:54:11.484Z,0
2016-09-27T02:55:12.207Z,0
2016-09-27T02:56:12.901Z,0
2016-09-27T02:57:13.589Z,0
2016-09-27T02:58:14.286Z,0
2016-09-27T02:59:14.977Z,0
2016-09-27T03:00:15.670Z,0
2016-09-27T03:01:16.350Z,0
2016-09-27T03:02:17.069Z,0
2016-09-27T03:03:17.756Z,0
2016-09-27T03:04:18.442Z,0
2016-09-27T03:05:19.136Z,0
2016-09-27T03:06:19.841Z,0
2016-09-27T03:07:20.535Z,0
2016-09-27T03:08:21.224Z,0
2016-09-27T03:09:21.910Z,0
2016-09-27T03:10:22.593Z,0
2016-09-27T03:11:23.277Z,0
2016-09-27T03:12:23.964Z,0
2016-09-27T03:13:24.665Z,0
2016-09-27T03:14:25.342Z,0
2016-09-27T03:15:26.024Z,0
2016-09-27T03:16:26.731Z,0
2016-09-27T03:17:27.418Z,0
2016-09-27T03:18:28.136Z,0
2016-09-27T03:19:28.813Z,0
2016-09-27T03:20:29.523Z,0
2016-09-27T03:21:30.221Z,0
2016-09-27T03:22:30.930Z,0
2016-09-27T03:23:31.654Z,0
2016-09-27T03:24:32.363Z,0
2016-09-27T03:25:33.049Z,0
2016-09-27T03:26:33.768Z,0
2016-09-27T03:27:34.458Z,0
2016-09-27T03:28:35.146Z,0
2016-09-27T03:29:35.846Z,0
2016-09-27T03:30:36.573Z,0
2016-09-27T03:31:37.273Z,0
2016-09-27T03:32:38.032Z,0
2016-09-27T03:33:38.753Z,0
2016-09-27T03:34:39.439Z,0
2016-09-27T03:35:40.128Z,0
2016-09-27T03:36:40.821Z,0
2016-09-27T03:37:41.518Z,0
2016-09-27T03:38:42.196Z,0
2016-09-27T03:39:42.887Z,0
2016-09-27T03:40:43.588Z,0
2016-09-27T03:41:44.297Z,0
2016-09-27T03:42:44.984Z,0
2016-09-27T03:43:45.670Z,0
2016-09-27T03:44:46.379Z,0
2016-09-27T03:45:47.088Z,0
2016-09-27T03:46:47.779Z,0
2016-09-27T03:47:48.466Z,0
2016-09-27T03:48:49.158Z,0
2016-09-27T03:49:49.847Z,0
2016-09-27T03:50:50.535Z,0
2016-09-27T03:51:51.236Z,0
2016-09-27T03:52:51.965Z,0
2016-09-27T03:53:52.683Z,0
2016-09-27T03:54:53.353Z,0
2016-09-27T03:55:54.071Z,0
2016-09-27T03:56:54.773Z,0
2016-09-27T03:57:55.483Z,0
2016-09-27T03:58:56.162Z,0
2016-09-27T03:59:56.872Z,0
2016-09-27T04:00:57.608Z,0
2016-09-27T04:01:58.282Z,0
2016-09-27T04:02:59.001Z,0
2016-09-27T04:03:59.703Z,0
2016-09-27T04:05:00.393Z,0
2016-09-27T04:06:01.091Z,0
2016-09-27T04:07:01.789Z,0
2016-09-27T04:08:02.467Z,0
2016-09-27T04:09:03.165Z,0
2016-09-27T04:10:03.856Z,0
2016-09-27T04:11:04.537Z,0
2016-09-27T04:12:05.231Z,0
2016-09-27T04:13:05.959Z,0
2016-09-27T04:14:06.652Z,0
2016-09-27T04:15:07.344Z,0
2016-09-27T04:16:08.032Z,0
2016-09-27T04:17:08.772Z,0
2016-09-27T04:18:09.465Z,0
2016-09-27T04:19:10.172Z,0
2016-09-27T04:20:10.891Z,0
2016-09-27T04:21:11.589Z,0
2016-09-27T04:22:12.267Z,0
2016-09-27T04:23:12.959Z,0
2016-09-27T04:24:13.652Z,0
2016-09-27T04:25:14.335Z,0
2016-09-27T04:26:15.047Z,0
2016-09-27T04:27:15.784Z,0
2016-09-27T04:28:16.478Z,0
2016-09-27T04:29:17.197Z,0
2016-09-27T04:30:17.885Z,0
2016-09-27T04:31:18.576Z,0
2016-09-27T04:32:19.282Z,0
2016-09-27T04:33:19.959Z,0
2016-09-27T04:34:20.665Z,0
2016-09-27T04:35:22.199Z,0
2016-09-27T04:36:23.768Z,0
2016-09-27T04:37:24.232Z,0
2016-09-27T04:38:24.952Z,0
2016-09-27T04:39:25.638Z,0
2016-09-27T04:40:26.363Z,0
2016-09-27T04:41:27.069Z,0
2016-09-27T04:42:27.801Z,0
2016-09-27T04:43:28.533Z,4
2016-09-27T04:44:29.243Z,0
2016-09-27T04:45:29.918Z,4
2016-09-27T04:46:30.645Z,4
2016-09-27T04:47:31.362Z,4
2016-09-27T04:48:32.037Z,4
2016-09-27T04:49:32.714Z,8
2016-09-27T04:50:33.429Z,8
2016-09-27T04:51:34.120Z,8
2016-09-27T04:52:34.797Z,12
2016-09-27T04:53:35.513Z,12
2016-09-27T04:54:36.226Z,16
2016-09-27T04:55:36.961Z,16
2016-09-27T04:56:37.671Z,20
2016-09-27T04:57:38.392Z,24
2016-09-27T04:58:39.136Z,28
2016-09-27T04:59:39.838Z,32
2016-09-27T05:00:40.558Z,40
2016-09-27T05:01:41.250Z,44
2016-09-27T05:02:41.959Z,52
2016-09-27T05:03:42.640Z,60
2016-09-27T05:04:43.321Z,68
2016-09-27T05:05:44.073Z,76
2016-09-27T05:06:44.749Z,88
2016-09-27T05:07:45.471Z,100
2016-09-27T05:08:46.166Z,108
2016-09-27T05:09:46.880Z,124
2016-09-27T05:10:47.585Z,136
2016-09-27T05:11:48.261Z,148
2016-09-27T05:12:48.958Z,160
2016-09-27T05:13:49.652Z,172
2016-09-27T05:14:50.337Z,184
2016-09-27T05:15:51.060Z,196
2016-09-27T05:16:51.751Z,204
2016-09-27T05:17:52.456Z,216
2016-09-27T05:18:53.141Z,232
2016-09-27T05:19:53.851Z,248
2016-09-27T05:20:54.541Z,260
2016-09-27T05:21:55.224Z,272
2016-09-27T05:22:55.909Z,284
2016-09-27T05:23:56.606Z,296
2016-09-27T05:24:57.341Z,316
2016-09-27T05:25:58.083Z,336
2016-09-27T05:26:58.772Z,368
2016-09-27T05:27:59.465Z,404
2016-09-27T05:29:00.158Z,436
2016-09-27T05:30:00.842Z,468
2016-09-27T05:31:01.533Z,492
2016-09-27T05:32:02.221Z,512
2016-09-27T05:33:02.908Z,532
2016-09-27T05:34:03.600Z,564
2016-09-27T05:35:04.300Z,608
2016-09-27T05:36:05.000Z,660
2016-09-27T05:37:05.703Z,700
2016-09-27T05:38:06.392Z,736
2016-09-27T05:39:07.089Z,744
2016-09-27T05:40:07.778Z,752
2016-09-27T05:41:08.490Z,764
2016-09-27T05:42:09.177Z,788
2016-09-27T05:43:09.905Z,812
2016-09-27T05:44:10.593Z,844
2016-09-27T05:45:11.281Z,888
2016-09-27T05:46:11.974Z,952
2016-09-27T05:47:12.678Z,1004
2016-09-27T05:48:13.378Z,1060
2016-09-27T05:49:14.088Z,1152
2016-09-27T05:50:14.825Z,1228
2016-09-27T05:51:15.528Z,1316
2016-09-27T05:52:16.237Z,1432
2016-09-27T05:53:16.957Z,1536
2016-09-27T05:54:17.650Z,1624
2016-09-27T05:55:18.335Z,1708
2016-09-27T05:56:19.027Z,1784
2016-09-27T05:57:19.732Z,1900
2016-09-27T05:58:20.420Z,2016
2016-09-27T05:59:21.135Z,2128
2016-09-27T06:00:21.820Z,2200
2016-09-27T06:01:22.514Z,2328
2016-09-27T06:02:23.194Z,2384
2016-09-27T06:03:23.919Z,2468
2016-09-27T06:04:24.621Z,2520
2016-09-27T06:05:25.315Z,2596
2016-09-27T06:06:26.024Z,2636
2016-09-27T06:07:26.713Z,2680
2016-09-27T06:08:27.410Z,2724
2016-09-27T06:09:28.103Z,2740
2016-09-27T06:10:28.820Z,2800
2016-09-27T06:11:29.524Z,2792
2016-09-27T06:12:30.218Z,2776
2016-09-27T06:13:30.917Z,2732
2016-09-27T06:14:31.601Z,2756
2016-09-27T06:15:32.309Z,2732
2016-09-27T06:16:33.044Z,2752
2016-09-27T06:17:33.745Z,2708
2016-09-27T06:18:34.448Z,2612
2016-09-27T06:19:35.137Z,2624
2016-09-27T06:20:35.838Z,2668
2016-09-27T06:21:36.545Z,2744
2016-09-27T06:22:37.247Z,2792
2016-09-27T06:23:37.952Z,2948
2016-09-27T06:24:38.640Z,3240
2016-09-27T06:25:39.345Z,3156
2016-09-27T06:26:40.043Z,3320
2016-09-27T06:27:40.766Z,3128
2016-09-27T06:28:41.483Z,3100
2016-09-27T06:29:42.219Z,3128
2016-09-27T06:30:42.923Z,3060
2016-09-27T06:31:43.614Z,3148
2016-09-27T06:32:44.316Z,3288
2016-09-27T06:33:45.026Z,3044
2016-09-27T06:34:45.751Z,2884
2016-09-27T06:35:46.437Z,3276
2016-09-27T06:36:47.158Z,3672
2016-09-27T06:37:47.876Z,3844
2016-09-27T06:38:48.551Z,5968
2016-09-27T06:39:49.262Z,11980
2016-09-27T06:40:49.953Z,6376
2016-09-27T06:41:50.649Z,14688
2016-09-27T06:42:51.463Z,14784
2016-09-27T06:43:52.159Z,14400
2016-09-27T06:44:52.850Z,17184
2016-09-27T06:45:53.556Z,17152
2016-09-27T06:46:54.243Z,17696
2016-09-27T06:47:54.934Z,17472
2016-09-27T06:48:55.638Z,16096
2016-09-27T06:49:56.348Z,14592
2016-09-27T06:50:57.037Z,14016
2016-09-27T06:51:57.743Z,17280
2016-09-27T06:52:58.442Z,18784
2016-09-27T06:53:59.140Z,19232
2016-09-27T06:54:59.828Z,18720
2016-09-27T06:56:00.554Z,19072
2016-09-27T06:57:01.257Z,20000
2016-09-27T06:58:01.953Z,21536
2016-09-27T06:59:02.705Z,22656
2016-09-27T07:00:03.398Z,22624
2016-09-27T07:01:04.103Z,21824
2016-09-27T07:02:04.805Z,21376
2016-09-27T07:03:05.508Z,21536
2016-09-27T07:04:06.213Z,21696
2016-09-27T07:05:06.922Z,21920
2016-09-27T07:06:07.627Z,22528
2016-09-27T07:07:08.343Z,23616
2016-09-27T07:08:09.031Z,25088
2016-09-27T07:09:09.734Z,25952
2016-09-27T07:10:10.426Z,25600
2016-09-27T07:11:11.136Z,25472
2016-09-27T07:12:11.850Z,26048
2016-09-27T07:13:12.569Z,27808
2016-09-27T07:14:13.287Z,29024
2016-09-27T07:15:14.009Z,28672
2016-09-27T07:16:14.708Z,28832
2016-09-27T07:17:15.414Z,30144
2016-09-27T07:18:16.138Z,32576
2016-09-27T07:19:16.839Z,34976
2016-09-27T07:20:17.552Z,33632
2016-09-27T07:21:18.255Z,29024
2016-09-27T07:22:18.949Z,26112
2016-09-27T07:23:19.661Z,27264
2016-09-27T07:24:20.366Z,30624
2016-09-27T07:25:21.064Z,33312
2016-09-27T07:26:21.766Z,32064
2016-09-27T07:27:22.473Z,27456
2016-09-27T07:28:23.203Z,23776
2016-09-27T07:29:23.914Z,23648
2016-09-27T07:30:24.612Z,25408
2016-09-27T07:31:25.326Z,26528
2016-09-27T07:32:26.028Z,26592
2016-09-27T07:33:26.714Z,26112
2016-09-27T07:34:27.430Z,25664
2016-09-27T07:35:28.136Z,26560
2016-09-27T07:36:28.849Z,29376
2016-09-27T07:37:29.565Z,32128
2016-09-27T07:38:30.289Z,32576
2016-09-27T07:39:30.986Z,30816
2016-09-27T07:40:31.700Z,28672
2016-09-27T07:41:32.409Z,28416
2016-09-27T07:42:33.113Z,29696
2016-09-27T07:43:33.813Z,31712
2016-09-27T07:44:34.513Z,32480
2016-09-27T07:45:35.224Z,30528
2016-09-27T07:46:35.916Z,24224
2016-09-27T07:47:36.619Z,19968
2016-09-27T07:48:37.378Z,15204
2016-09-27T07:49:38.080Z,12464
2016-09-27T07:50:38.795Z,22944
2016-09-27T07:51:39.520Z,22144
2016-09-27T07:52:40.247Z,9796
2016-09-27T07:53:40.932Z,7432
2016-09-27T07:54:41.641Z,10804
2016-09-27T07:55:42.370Z,20992
2016-09-27T07:56:43.087Z,31840
2016-09-27T07:57:43.784Z,34496
2016-09-27T07:58:44.495Z,32416
2016-09-27T07:59:45.222Z,32224
2016-09-27T08:00:45.948Z,33696
2016-09-27T08:01:46.663Z,35136
2016-09-27T08:02:47.392Z,35456
2016-09-27T08:03:48.097Z,35232
2016-09-27T08:04:48.825Z,36000
2016-09-27T08:05:49.525Z,37152
2016-09-27T08:06:50.233Z,37952
2016-09-27T08:07:50.939Z,37952
2016-09-27T08:08:51.643Z,38208
2016-09-27T08:09:52.361Z,39168
2016-09-27T08:10:53.067Z,39232
2016-09-27T08:11:53.765Z,38560
2016-09-27T08:12:54.468Z,37408
2016-09-27T08:13:55.190Z,37088
2016-09-27T08:14:55.924Z,36768
2016-09-27T08:15:56.633Z,37888
2016-09-27T08:16:57.355Z,38560
2016-09-27T08:17:58.100Z,38752
2016-09-27T08:18:58.807Z,38272
2016-09-27T08:19:59.542Z,38080
2016-09-27T08:21:00.257Z,39392
2016-09-27T08:22:00.970Z,40928
2016-09-27T08:23:01.703Z,42208
2016-09-27T08:24:02.525Z,42272
2016-09-27T08:25:03.266Z,41056
2016-09-27T08:26:03.972Z,38400
2016-09-27T08:27:04.697Z,36608
2016-09-27T08:28:05.424Z,37792
2016-09-27T08:29:06.150Z,40928
2016-09-27T08:30:06.883Z,44896
2016-09-27T08:31:07.603Z,47168
2016-09-27T08:32:08.343Z,44960
2016-09-27T08:33:09.064Z,34656
2016-09-27T08:34:09.767Z,28640
2016-09-27T08:35:10.490Z,32096
2016-09-27T08:36:11.205Z,36640
2016-09-27T08:37:11.918Z,38304
2016-09-27T08:38:12.630Z,38624
2016-09-27T08:39:13.346Z,41568
2016-09-27T08:40:14.048Z,44896
2016-09-27T08:41:14.766Z,45248
2016-09-27T08:42:15.477Z,42208
2016-09-27T08:43:16.180Z,39232
2016-09-27T08:44:16.899Z,37568
2016-09-27T08:45:17.628Z,38208
2016-09-27T08:46:18.402Z,39840
2016-09-27T08:47:19.141Z,40576
2016-09-27T08:48:19.855Z,40256
2016-09-27T08:49:20.567Z,42304
2016-09-27T08:50:21.264Z,45824
2016-09-27T08:51:21.967Z,48864
2016-09-27T08:52:22.686Z,49024
2016-09-27T08:53:23.412Z,46816
2016-09-27T08:54:24.135Z,29440
2016-09-27T08:55:24.854Z,12632
2016-09-27T08:56:25.566Z,17568
2016-09-27T08:57:26.407Z,17056
2016-09-27T08:58:27.374Z,5500
2016-09-27T08:59:28.224Z,5016
2016-09-27T09:00:29.165Z,4960
2016-09-27T09:01:29.960Z,4916
2016-09-27T09:02:30.751Z,4872
2016-09-27T09:03:31.597Z,4832
2016-09-27T09:04:32.356Z,4812
2016-09-27T09:05:33.008Z,4788
2016-09-27T09:06:33.725Z,4776
2016-09-27T09:07:34.500Z,4768
2016-09-27T09:08:35.254Z,4760
2016-09-27T09:09:36.075Z,4752
2016-09-27T09:10:36.825Z,4740
2016-09-27T09:11:37.625Z,4728
2016-09-27T09:12:38.339Z,4700
2016-09-27T09:13:39.195Z,4684
2016-09-27T09:14:40.088Z,4664
2016-09-27T09:15:40.843Z,4632
2016-09-27T09:16:41.608Z,4604
2016-09-27T09:17:42.326Z,4580
2016-09-27T09:18:43.040Z,4556
2016-09-27T09:19:43.744Z,4528
2016-09-27T09:20:44.461Z,4516
2016-09-27T09:21:45.172Z,4476
2016-09-27T09:22:45.879Z,4444
2016-09-27T09:23:46.578Z,4408
2016-09-27T09:24:47.276Z,4392
2016-09-27T09:25:47.970Z,4340
2016-09-27T09:26:48.665Z,4296
2016-09-27T09:27:49.375Z,4248
2016-09-27T09:28:50.095Z,4192
2016-09-27T09:29:50.854Z,4148
2016-09-27T09:30:51.582Z,4124
2016-09-27T09:31:52.275Z,4084
2016-09-27T09:32:53.016Z,4028
2016-09-27T09:33:53.736Z,3984
2016-09-27T09:34:54.482Z,3984
2016-09-27T09:35:55.166Z,3972
2016-09-27T09:36:55.909Z,3960
2016-09-27T09:37:56.634Z,3940
2016-09-27T09:38:57.342Z,3924
2016-09-27T09:39:58.054Z,3900
2016-09-27T09:40:58.769Z,3872
2016-09-27T09:41:59.471Z,3856
2016-09-27T09:43:00.206Z,3840
2016-09-27T09:44:00.909Z,3828
2016-09-27T09:45:01.609Z,3808
2016-09-27T09:46:02.332Z,3796
2016-09-27T09:47:03.045Z,3792
2016-09-27T09:48:03.750Z,3788
2016-09-27T09:49:04.451Z,3780
2016-09-27T09:50:05.145Z,3760
2016-09-27T09:51:05.861Z,3728
2016-09-27T09:52:06.565Z,3704
2016-09-27T09:53:07.255Z,3696
2016-09-27T09:54:07.959Z,3676
2016-09-27T09:55:08.651Z,3652
2016-09-27T09:56:09.370Z,3640
2016-09-27T09:57:10.075Z,3640
2016-09-27T09:58:10.769Z,3648
2016-09-27T09:59:11.473Z,3660
2016-09-27T10:00:12.180Z,3668
2016-09-27T10:01:12.899Z,3684
2016-09-27T10:02:13.612Z,3692
2016-09-27T10:03:14.317Z,3732
2016-09-27T10:04:15.038Z,3768
2016-09-27T10:05:15.724Z,3776
2016-09-27T10:06:16.439Z,3820
2016-09-27T10:07:17.139Z,3856
2016-09-27T10:08:17.835Z,3880
2016-09-27T10:09:18.670Z,3948
2016-09-27T10:10:19.385Z,4084
2016-09-27T10:11:20.102Z,4184
2016-09-27T10:12:20.848Z,4384
2016-09-27T10:13:21.550Z,4508
2016-09-27T10:14:22.250Z,4688
2016-09-27T10:15:22.949Z,4976
2016-09-27T10:16:23.640Z,5196
2016-09-27T10:17:24.352Z,5036
2016-09-27T10:18:25.060Z,4852
2016-09-27T10:19:25.769Z,4672
2016-09-27T10:20:26.485Z,4580
2016-09-27T10:21:27.181Z,4320
2016-09-27T10:22:27.928Z,4176
2016-09-27T10:23:28.644Z,4088
2016-09-27T10:24:29.359Z,3820
2016-09-27T10:25:30.069Z,3564
2016-09-27T10:26:30.824Z,3432
2016-09-27T10:27:31.530Z,3368
2016-09-27T10:28:32.228Z,3408
2016-09-27T10:29:32.927Z,3512
2016-09-27T10:30:33.635Z,3640
2016-09-27T10:31:34.343Z,3588
2016-09-27T10:32:35.041Z,3524
2016-09-27T10:33:35.736Z,3444
2016-09-27T10:34:36.443Z,3304
2016-09-27T10:35:37.144Z,3204
2016-09-27T10:36:37.889Z,3176
2016-09-27T10:37:38.593Z,3208
2016-09-27T10:38:39.299Z,3188
2016-09-27T10:39:39.991Z,3188
2016-09-27T10:40:40.715Z,3148
2016-09-27T10:41:41.456Z,3112
2016-09-27T10:42:42.162Z,3116
2016-09-27T10:43:42.861Z,3100
2016-09-27T10:44:43.556Z,3108
2016-09-27T10:45:44.250Z,3136
2016-09-27T10:46:44.951Z,3248
2016-09-27T10:47:45.648Z,3300
2016-09-27T10:48:46.361Z,3292
2016-09-27T10:49:47.119Z,3292
2016-09-27T10:50:47.848Z,3344
2016-09-27T10:51:48.545Z,3348
2016-09-27T10:52:49.240Z,3304
2016-09-27T10:53:49.958Z,3296
2016-09-27T10:54:50.661Z,3260
2016-09-27T10:55:51.389Z,3188
2016-09-27T10:56:52.090Z,2832
2016-09-27T10:57:52.826Z,2864
2016-09-27T10:58:53.529Z,2764
2016-09-27T10:59:54.243Z,2796
2016-09-27T11:00:54.955Z,2744
2016-09-27T11:01:55.680Z,2692
2016-09-27T11:02:56.370Z,2664
2016-09-27T11:03:57.090Z,2664
2016-09-27T11:04:57.787Z,2656
2016-09-27T11:05:58.539Z,2652
2016-09-27T11:06:59.266Z,2648
2016-09-27T11:07:59.962Z,2672
2016-09-27T11:09:00.652Z,2712
2016-09-27T11:10:01.351Z,2812
2016-09-27T11:11:02.050Z,2956
2016-09-27T11:12:02.755Z,3172
2016-09-27T11:13:03.458Z,3400
2016-09-27T11:14:04.161Z,3520
2016-09-27T11:15:04.891Z,3600
2016-09-27T11:16:05.600Z,3696
2016-09-27T11:17:06.316Z,3808
2016-09-27T11:18:07.008Z,3872
2016-09-27T11:19:07.719Z,4016
2016-09-27T11:20:08.434Z,4004
2016-09-27T11:21:09.171Z,4012
2016-09-27T11:22:09.874Z,4172
2016-09-27T11:23:10.595Z,4396
2016-09-27T11:24:11.321Z,4604
2016-09-27T11:25:12.035Z,4980
2016-09-27T11:26:12.744Z,5468
2016-09-27T11:27:13.474Z,5664
2016-09-27T11:28:14.191Z,5268
2016-09-27T11:29:14.880Z,4996
2016-09-27T11:30:15.593Z,5152
2016-09-27T11:31:16.318Z,5304
2016-09-27T11:32:17.046Z,5684
2016-09-27T11:33:17.747Z,6228
2016-09-27T11:34:18.456Z,5984
2016-09-27T11:35:19.159Z,6324
2016-09-27T11:36:19.867Z,6752
2016-09-27T11:37:20.575Z,7084
2016-09-27T11:38:21.284Z,6840
2016-09-27T11:39:21.986Z,6192
2016-09-27T11:40:22.695Z,5580
2016-09-27T11:41:23.397Z,5504
2016-09-27T11:42:24.088Z,5808
2016-09-27T11:43:24.782Z,5928
2016-09-27T11:45:26.231Z,6188
2016-09-27T11:46:26.925Z,6412
2016-09-27T11:47:27.633Z,6416
2016-09-27T11:48:28.345Z,5924
2016-09-27T11:49:29.100Z,5284
2016-09-27T11:50:29.826Z,4636
2016-09-27T11:51:30.527Z,4200
2016-09-27T11:52:31.241Z,4048
2016-09-27T11:53:31.932Z,3888
2016-09-27T11:54:32.628Z,3724
2016-09-27T11:55:33.319Z,3484
2016-09-27T11:56:34.027Z,3364
2016-09-27T11:57:34.715Z,3172
2016-09-27T11:58:35.422Z,3048
2016-09-27T11:59:36.152Z,2952
2016-09-27T12:00:36.887Z,2840
2016-09-27T12:01:37.607Z,2792
2016-09-27T12:02:38.335Z,2764
2016-09-27T12:03:39.028Z,2728
2016-09-27T12:04:39.731Z,2700
2016-09-27T12:05:40.441Z,2680
2016-09-27T12:06:41.173Z,2660
2016-09-27T12:07:41.901Z,2644
2016-09-27T12:08:42.613Z,2664
2016-09-27T12:09:43.285Z,2684
2016-09-27T12:10:43.976Z,2748
2016-09-27T12:11:44.680Z,3000
2016-09-27T12:12:45.386Z,3400
2016-09-27T12:13:46.086Z,3692
2016-09-27T12:14:46.804Z,3840
2016-09-27T12:15:47.494Z,3816
2016-09-27T12:16:48.207Z,3520
2016-09-27T12:17:48.905Z,2848
2016-09-27T12:18:49.615Z,2568
2016-09-27T12:19:50.328Z,2512
2016-09-27T12:20:51.046Z,2508
2016-09-27T12:21:51.784Z,2508
2016-09-27T12:22:52.485Z,2688
2016-09-27T12:23:53.185Z,3096
2016-09-27T12:24:53.886Z,3320
2016-09-27T12:25:54.658Z,3428
2016-09-27T12:26:55.378Z,3292
2016-09-27T12:27:56.078Z,2892
2016-09-27T12:28:56.781Z,2608
2016-09-27T12:29:57.660Z,2660
2016-09-27T12:30:58.357Z,2752
2016-09-27T12:31:59.104Z,2752
2016-09-27T12:32:59.829Z,2716
2016-09-27T12:34:00.524Z,2612
2016-09-27T12:35:01.204Z,2600
2016-09-27T12:36:01.919Z,2536
2016-09-27T12:37:02.626Z,2484
2016-09-27T12:38:03.350Z,2624
2016-09-27T12:39:04.059Z,2944
2016-09-27T12:40:04.753Z,3240
2016-09-27T12:41:05.461Z,3280
2016-09-27T12:42:06.157Z,3296
2016-09-27T12:43:06.856Z,3008
2016-09-27T12:44:07.680Z,2612
2016-09-27T12:45:08.606Z,2412
2016-09-27T12:46:09.615Z,2356
2016-09-27T12:47:10.555Z,2324
2016-09-27T12:48:11.478Z,2264
2016-09-27T12:49:12.460Z,2216
2016-09-27T12:50:13.499Z,2188
2016-09-27T12:51:14.563Z,2176
2016-09-27T12:52:15.583Z,2176
2016-09-27T12:53:16.635Z,2184
2016-09-27T12:54:17.731Z,2180
2016-09-27T12:55:18.830Z,2180
2016-09-27T12:56:19.910Z,2184
2016-09-27T12:57:20.994Z,2184
2016-09-27T12:58:22.113Z,2180
2016-09-27T12:59:23.230Z,2172
2016-09-27T13:00:24.344Z,2168
2016-09-27T13:01:25.481Z,2172
2016-09-27T19:53:06.046Z,0
2016-09-27T19:54:06.765Z,0
2016-09-27T19:55:07.479Z,0
2016-09-27T19:56:08.189Z,0
2016-09-27T19:57:08.906Z,0
2016-09-27T19:58:09.635Z,0
2016-09-27T19:59:10.316Z,0
2016-09-27T20:00:10.989Z,0
2016-09-27T20:01:11.711Z,0
2016-09-27T20:02:12.483Z,0
2016-09-27T20:03:13.223Z,0
2016-09-27T20:04:13.897Z,0
2016-09-27T20:05:14.602Z,0
2016-09-27T20:06:15.443Z,0
2016-09-27T20:07:16.175Z,0
2016-09-27T20:08:16.879Z,0
2016-09-27T20:09:17.557Z,0
2016-09-27T20:10:18.326Z,0
2016-09-27T20:11:19.012Z,0
2016-09-27T20:12:19.709Z,0
2016-09-27T20:13:20.394Z,0
2016-09-27T20:14:21.073Z,0
2016-09-27T20:15:21.796Z,0
2016-09-27T20:16:22.530Z,0
2016-09-27T20:17:23.251Z,0
2016-09-27T20:18:23.964Z,0
2016-09-27T20:19:24.789Z,0
2016-09-27T20:20:25.511Z,0
2016-09-27T20:21:26.231Z,0
2016-09-27T20:22:26.964Z,0
2016-09-27T20:23:27.684Z,0
2016-09-27T20:24:28.359Z,0
2016-09-27T20:25:29.088Z,0
2016-09-27T20:26:29.775Z,0
2016-09-27T20:27:30.482Z,0
2016-09-27T20:28:31.173Z,0
2016-09-27T20:29:31.873Z,0
2016-09-27T20:30:32.589Z,0
2016-09-27T20:31:33.277Z,0
2016-09-27T20:32:33.966Z,0
2016-09-27T20:33:34.711Z,0
2016-09-27T20:34:35.395Z,0
2016-09-27T20:35:36.069Z,0
2016-09-27T20:36:36.793Z,0
2016-09-27T20:37:37.635Z,0
2016-09-27T20:38:38.327Z,0
2016-09-27T20:39:39.018Z,0
2016-09-27T20:40:39.717Z,0
2016-09-27T20:41:40.400Z,0
2016-09-27T20:42:41.072Z,0
2016-09-27T20:43:41.753Z,0
2016-09-27T20:44:42.457Z,0
2016-09-27T20:45:43.156Z,0
2016-09-27T20:46:43.848Z,0
2016-09-27T20:47:44.544Z,0
2016-09-27T20:48:45.255Z,0
2016-09-27T20:49:45.942Z,0
2016-09-27T20:50:46.625Z,0
2016-09-27T20:51:47.300Z,0
2016-09-27T20:52:47.982Z,0
2016-09-27T20:53:48.678Z,0